Calvertville, Indiana
Current Conditions -  °F | °C
As of 9:53 PM on Saturday 24 Jan 2015 (Local Time) from KBMG Reporting Station
Clear Clear  
Wind Chill: 29°   Ceiling: Unl
Heat Index: 35°   Visibility: 10mi
Dew Point: 31°   Wind: 7mph
Humidity: 85%   Direction: 220°SW
Pressure: 29.77"   Gusts: NA
Location:  39.0306°N, 86.8553°W
Report Text: KBMG 250253Z 22006KT 10SM CLR 02/M01 A2977 RMK AO2 SLP086 T00171006 58002
Loading
Personal Weather Stations






























Interactive Weather Map New forecast layout! Learn more

10-Day Weather Forecast

Advertisements
Track Severe Weather on mobile